Data for 02/28/2018

Time Sea-Level Adjusted Pressure Absolute Pressure Temperature Relative Humidity Dew Point   
(mb) (inHg) (mb) (inHg) (C) (F) (%) (C) (F)
00:05 1014 29.94 843 24.89 -9.5 14.9 57 -16.4 2.4
00:10 1014 29.94 843 24.89 -10.5 13.2 61 -16.6 2.1
00:15 1014 29.94 843 24.89 -10.5 13 60 -16.8 1.7
00:20 1014 29.94 843 24.89 -9.8 14.4 56 -17 1.4
00:25 1014 29.94 843 24.89 -10.2 13.7 57 -17.1 1.2
00:30 1014 29.94 843 24.89 -9.9 14.3 58 -16.7 1.9
00:35 1014 29.94 843 24.89 -9.6 14.8 56 -16.8 1.8
00:40 1014 29.94 843 24.89 -9.5 14.9 58 -16.2 2.8
00:45 1014 29.94 843 24.89 -9.6 14.8 59 -16.2 2.9
00:50 1014 29.94 843 24.89 -9.5 14.9 56 -16.8 1.8
00:55 1014 29.94 843 24.89 -9.2 15.5 55 -16.7 1.9
01:00 1014 29.94 843 24.89 -9.6 14.8 59 -16.2 2.9
01:05 1014 29.94 843 24.89 -9.3 15.2 55 -16.7 1.9
01:10 1014 29.94 843 24.89 -8.9 16 53 -16.8 1.7
01:15 1014 29.94 843 24.89 -9 15.8 55 -16.4 2.6
01:20 1014 29.94 844 24.92 -8.8 16.1 53 -16.7 1.9
01:25 1014 29.94 844 24.92 -8.9 15.9 58 -15.7 3.8
01:30 1014 29.94 844 24.92 -9.4 15.1 56 -16.6 2.2
01:35 1015 29.97 844 24.92 -9.5 14.9 55 -16.9 1.5
01:40 1015 29.97 844 24.92 -9.1 15.7 54 -16.7 2
01:45 1015 29.97 844 24.92 -8.9 16 52 -17 1.4
01:50 1015 29.97 844 24.92 -8.9 15.9 56 -16.2 2.8
01:55 1015 29.97 844 24.92 -9.8 14.5 57 -16.8 1.8
02:00 1015 29.97 844 24.92 -10.3 13.6 60 -16.7 2
02:05 1015 29.97 844 24.92 -11 12.3 62 -16.8 1.7
02:10 1015 29.97 844 24.92 -10.7 12.8 61 -16.8 1.7
02:15 1015 29.97 844 24.92 -10.6 12.9 61 -16.7 2
02:20 1014 29.94 844 24.92 -10.4 13.2 61 -16.5 2.2
02:25 1014 29.94 844 24.92 -10.2 13.6 63 -15.9 3.4
02:30 1014 29.94 843 24.89 -9.7 14.5 60 -16.1 3.1
02:35 1014 29.94 843 24.89 -9.4 15.1 58 -16.2 2.9
02:40 1014 29.94 843 24.89 -9.1 15.6 58 -15.9 3.4
02:45 1014 29.94 843 24.89 -8.8 16.2 57 -15.8 3.6
02:50 1014 29.94 843 24.89 -8.8 16.1 57 -16 3.3
02:55 1014 29.94 843 24.89 -8.9 16.1 58 -15.6 3.9
03:00 1014 29.94 843 24.89 -9.2 15.5 59 -15.8 3.5
03:05 1014 29.94 843 24.89 -9.9 14.1 61 -16 3.2
03:10 1014 29.94 844 24.92 -10.4 13.3 62 -16.4 2.4
03:15 1014 29.94 843 24.89 -10 14 60 -16.3 2.7
03:20 1014 29.94 843 24.89 -9.7 14.5 59 -16.2 2.8
03:25 1014 29.94 843 24.89 -9.4 15.1 58 -16.3 2.6
03:30 1014 29.94 843 24.89 -9.1 15.6 56 -16.4 2.6
03:35 1014 29.94 843 24.89 -8.8 16.1 54 -16.5 2.3
03:40 1014 29.94 843 24.89 -8.2 17.2 52 -16.5 2.3
03:45 1014 29.94 843 24.89 -8.3 17 54 -16 3.2
03:50 1014 29.94 843 24.89 -8.9 16 56 -16.1 3
03:55 1014 29.94 843 24.89 -9.4 15.2 57 -16.3 2.7
04:00 1014 29.94 844 24.92 -9.3 15.3 58 -16.1 2.9
04:05 1014 29.94 844 24.92 -9.3 15.3 57 -16.3 2.7
04:10 1014 29.94 844 24.92 -9.1 15.6 56 -16.3 2.6
04:15 1014 29.94 844 24.92 -9 15.9 56 -16.3 2.6
04:20 1014 29.94 843 24.89 -8.8 16.1 55 -16.4 2.5
04:25 1014 29.94 843 24.89 -8.6 16.6 54 -16.3 2.6
04:30 1014 29.94 843 24.89 -8.5 16.7 54 -16.2 2.9
04:35 1014 29.94 843 24.89 -8.6 16.5 55 -16 3.1
04:40 1014 29.94 844 24.92 -8.6 16.6 55 -16.1 2.9
04:45 1014 29.94 843 24.89 -8.6 16.6 54 -16.4 2.5
04:50 1014 29.94 843 24.89 -8.4 16.9 54 -16.1 3.1
04:55 1014 29.94 843 24.89 -8.6 16.6 56 -15.9 3.3
05:00 1014 29.94 843 24.89 -8.7 16.3 57 -15.7 3.7
05:05 1014 29.94 843 24.89 -8.4 16.8 55 -15.9 3.4
05:10 1014 29.94 843 24.89 -8.3 17 55 -15.9 3.5
05:15 1014 29.94 843 24.89 -8.2 17.2 57 -15.4 4.4
05:20 1014 29.94 843 24.89 -8.2 17.3 56 -15.6 4
05:25 1014 29.94 843 24.89 -8.2 17.2 57 -15.4 4.3
05:30 1014 29.94 843 24.89 -8.4 16.8 56 -15.7 3.8
05:35 1014 29.94 843 24.89 -8.3 17.2 58 -15.1 4.8
05:40 1014 29.94 843 24.89 -8.1 17.3 56 -15.4 4.3
05:45 1014 29.94 843 24.89 -8.4 17 59 -14.9 5.1
05:50 1014 29.94 843 24.89 -8.7 16.3 60 -15.2 4.6
05:55 1014 29.94 843 24.89 -8.6 16.5 59 -15.3 4.5
06:00 1014 29.94 843 24.89 -8.5 16.7 60 -15 5.1
06:05 1014 29.94 843 24.89 -8.3 17.1 61 -14.6 5.6
06:10 1014 29.94 843 24.89 -8.1 17.3 59 -14.7 5.5
06:15 1014 29.94 843 24.89 -8.2 17.3 57 -15.2 4.6
06:20 1014 29.94 844 24.92 -8.4 17 60 -14.8 5.4
06:25 1014 29.94 844 24.92 -8.5 16.6 58 -15.5 4.2
06:30 1014 29.94 844 24.92 -8.2 17.3 57 -15.4 4.4
06:35 1014 29.94 844 24.92 -8 17.6 56 -15.4 4.3
06:40 1015 29.97 844 24.92 -7.8 18 56 -15.2 4.6
06:45 1015 29.97 844 24.92 -7.8 18 55 -15.3 4.5
06:50 1015 29.97 844 24.92 -7.7 18.1 56 -15.1 4.9
06:55 1015 29.97 844 24.92 -7.8 18 56 -15 5
07:00 1015 29.97 844 24.92 -7.8 18 57 -14.9 5.2
07:05 1015 29.97 844 24.92 -7.7 18.2 57 -14.8 5.3
07:10 1015 29.97 844 24.92 -7.2 19.1 54 -15.1 4.8
07:15 1015 29.97 844 24.92 -6.7 19.9 52 -15.1 4.9
07:20 1015 29.97 844 24.92 -6.6 20.2 52 -14.9 5.1
07:25 1015 29.97 844 24.92 -5.8 21.5 50 -14.8 5.4
07:30 1015 29.97 844 24.92 -5.2 22.6 44 -15.6 3.9
07:35 1015 29.97 844 24.92 -4.6 23.7 44 -15.1 4.9
07:40 1015 29.97 844 24.92 -4.2 24.4 43 -15.1 4.8
07:45 1015 29.97 844 24.92 -4.6 23.6 44 -15.2 4.6
07:50 1015 29.97 844 24.92 -4.2 24.5 42 -15.3 4.5
07:55 1015 29.97 844 24.92 -4.1 24.7 41 -15.6 3.9
08:00 1015 29.97 844 24.92 -3.6 25.6 39 -15.6 4
08:05 1015 29.97 844 24.92 -3.2 26.3 39 -15.2 4.7
08:10 1015 29.97 844 24.92 -2.9 26.8 38 -15.4 4.3
08:15 1015 29.97 844 24.92 -2.8 27 38 -15.1 4.8
08:20 1015 29.97 844 24.92 -2.7 27.2 36 -15.8 3.6
08:25 1015 29.97 844 24.92 -2.7 27.2 37 -15.6 3.9
08:30 1015 29.97 844 24.92 -2.4 27.7 35 -15.7 3.7
08:35 1015 29.97 844 24.92 -1.9 28.5 34 -16 3.2
08:40 1015 29.97 844 24.92 -1.7 28.9 34 -15.7 3.7
08:45 1015 29.97 844 24.92 -1.1 30 30 -16.5 2.3
08:50 1015 29.97 844 24.92 -0.9 30.4 31 -16.1 3.1
08:55 1015 29.97 844 24.92 -1.2 29.8 32 -15.8 3.6
09:00 1015 29.97 844 24.92 -1.3 29.7 34 -15.3 4.5
09:05 1015 29.97 844 24.92 -1.1 30 32 -15.9 3.5
09:10 1015 29.97 844 24.92 -0.5 31.1 33 -15 5
09:15 1015 29.97 844 24.92 -0.6 30.9 32 -15.4 4.3
09:20 1015 29.97 844 24.92 -0.5 31.1 32 -15.4 4.3
09:25 1015 29.97 844 24.92 -0.5 31 30 -16.2 2.9
09:30 1015 29.97 844 24.92 -1.1 30.1 32 -15.7 3.7
09:35 1015 29.97 844 24.92 -0.2 31.7 32 -15.1 4.9
09:40 1015 29.97 844 24.92 0.2 32.3 30 -15.4 4.2
09:45 1015 29.97 844 24.92 0.8 33.5 30 -14.9 5.1
09:50 1015 29.97 844 24.92 1.3 34.4 29 -15 4.9
09:55 1015 29.97 844 24.92 1.2 34.1 29 -14.8 5.3
10:00 1015 29.97 844 24.92 1.3 34.3 29 -14.9 5.2
10:05 1015 29.97 844 24.92 1 33.9 29 -15.3 4.5
10:10 1015 29.97 844 24.92 1 33.8 30 -14.6 5.7
10:15 1015 29.97 845 24.95 1.2 34.2 30 -14.6 5.7
10:20 1015 29.97 845 24.95 1.8 35.2 29 -14.7 5.6
10:25 1015 29.97 845 24.95 1.8 35.2 29 -14.4 6
10:30 1015 29.97 845 24.95 1.6 35 29 -14.5 6
10:35 1015 29.97 845 24.95 1.2 34.1 29 -15.1 4.8
10:40 1015 29.97 845 24.95 0.7 33.2 32 -14.3 6.2
10:45 1016 30 845 24.95 0.8 33.5 30 -14.9 5.1
10:50 1015 29.97 845 24.95 0.8 33.5 30 -14.9 5.2
10:55 1015 29.97 845 24.95 1.6 34.9 29 -14.7 5.5
11:00 1015 29.97 845 24.95 1.5 34.7 30 -14.4 6.1
11:05 1015 29.97 845 24.95 1.8 35.3 28 -14.6 5.7
11:10 1015 29.97 844 24.92 1.8 35.2 29 -14.3 6.2
11:15 1015 29.97 844 24.92 1.9 35.4 28 -14.8 5.4
11:20 1015 29.97 844 24.92 1.2 34.2 28 -15.2 4.6
11:25 1015 29.97 844 24.92 1.7 35.1 29 -14.4 6.1
11:30 1015 29.97 844 24.92 1.5 34.7 29 -14.8 5.3
11:35 1015 29.97 844 24.92 2.1 35.8 30 -13.9 7
11:40 1015 29.97 844 24.92 1.9 35.4 29 -14.5 5.9
11:45 1015 29.97 844 24.92 1.9 35.4 29 -14.5 5.8
11:50 1015 29.97 844 24.92 2.3 36.1 29 -13.9 7
11:55 1015 29.97 844 24.92 2.7 36.8 28 -14.1 6.6
12:00 1015 29.97 844 24.92 1.8 35.2 31 -13.7 7.3
12:05 1015 29.97 844 24.92 0.7 33.2 32 -14.3 6.2
12:10 1015 29.97 844 24.92 0 32.1 34 -14 6.7
12:15 1015 29.97 844 24.92 0.4 32.6 32 -14.5 5.9
12:20 1015 29.97 844 24.92 0.1 32.1 31 -15 5
12:25 1014 29.94 844 24.92 -0.1 31.9 33 -14.7 5.6
12:30 1015 29.97 844 24.92 -0 32 34 -14 6.9
12:35 1014 29.94 844 24.92 0.7 33.3 32 -14.1 6.6
12:40 1014 29.94 844 24.92 1.4 34.5 31 -14 6.9
12:45 1014 29.94 844 24.92 0.3 32.5 33 -14.2 6.5
12:50 1014 29.94 844 24.92 0.1 32.2 31 -15 5.1
12:55 1014 29.94 844 24.92 -0.2 31.6 33 -14.7 5.5
13:00 1014 29.94 844 24.92 0 32.1 32 -14.8 5.3
13:05 1014 29.94 844 24.92 0.6 33.1 33 -14.1 6.7
13:10 1014 29.94 844 24.92 0.9 33.7 32 -14 6.8
13:15 1014 29.94 844 24.92 0.5 32.9 31 -14.6 5.7
13:20 1014 29.94 844 24.92 0.2 32.3 32 -14.8 5.4
13:25 1014 29.94 843 24.89 0.6 33.1 29 -15.5 4.1
13:30 1014 29.94 843 24.89 2 35.6 28 -14.6 5.8
13:35 1014 29.94 843 24.89 1.7 35.1 31 -13.9 7.1
13:40 1014 29.94 843 24.89 1.8 35.2 28 -14.9 5.2
13:45 1014 29.94 843 24.89 1.2 34.1 30 -14.4 6
13:50 1014 29.94 843 24.89 1 33.9 30 -14.9 5.2
13:55 1014 29.94 843 24.89 1.7 35.1 29 -14.6 5.6
14:00 1014 29.94 844 24.92 1 33.9 30 -14.7 5.6
14:05 1014 29.94 844 24.92 1.6 35 28 -15.2 4.7
14:10 1014 29.94 844 24.92 2.1 35.8 29 -14.4 6.1
14:15 1014 29.94 844 24.92 2.7 36.8 28 -14 6.8
14:20 1014 29.94 844 24.92 2.2 36 29 -13.9 6.9
14:25 1014 29.94 844 24.92 2.3 36.1 28 -14.6 5.6
14:30 1014 29.94 844 24.92 1.7 35 29 -14.7 5.6
14:35 1014 29.94 844 24.92 1.4 34.5 29 -14.7 5.6
14:40 1014 29.94 844 24.92 1.7 35 29 -14.4 6
14:45 1014 29.94 844 24.92 1.5 34.7 29 -14.6 5.7
14:50 1014 29.94 844 24.92 0.9 33.7 31 -14.4 6.1
14:55 1014 29.94 844 24.92 1.5 34.7 29 -14.9 5.1
15:00 1014 29.94 844 24.92 0.4 32.7 30 -15.4 4.4
15:05 1014 29.94 844 24.92 0.6 33 29 -15.7 3.7
15:10 1014 29.94 844 24.92 1.3 34.3 28 -15.4 4.3
15:15 1014 29.94 844 24.92 1 33.7 28 -15.8 3.5
15:20 1014 29.94 844 24.92 0.7 33.3 28 -15.8 3.6
15:25 1014 29.94 844 24.92 1.6 34.9 27 -15.4 4.3
15:30 1014 29.94 844 24.92 2.1 35.8 27 -15.2 4.6
15:35 1014 29.94 844 24.92 2 35.7 27 -15.2 4.6
15:40 1014 29.94 844 24.92 2 35.6 26 -15.7 3.8
15:45 1014 29.94 844 24.92 1.2 34.1 27 -15.7 3.8
15:50 1014 29.94 844 24.92 0.7 33.2 28 -15.7 3.7
15:55 1014 29.94 844 24.92 -0.2 31.7 30 -15.8 3.6
16:00 1014 29.94 844 24.92 -0.3 31.4 31 -15.5 4.1
16:05 1014 29.94 844 24.92 0.3 32.6 29 -15.9 3.4
16:10 1014 29.94 844 24.92 0.4 32.7 30 -15.2 4.6
16:15 1014 29.94 844 24.92 0.4 32.8 29 -15.7 3.7
16:20 1014 29.94 844 24.92 0 32 30 -15.7 3.8
16:25 1014 29.94 844 24.92 -0.2 31.7 32 -14.9 5.2
16:30 1015 29.97 844 24.92 0 32 34 -14.2 6.5
16:35 1015 29.97 844 24.92 -0.2 31.7 33 -14.5 6
16:40 1015 29.97 844 24.92 -0.2 31.7 34 -14.1 6.7
16:45 1015 29.97 844 24.92 -0.1 31.8 34 -14.3 6.2
16:50 1015 29.97 844 24.92 -0.3 31.4 35 -13.9 7
16:55 1015 29.97 844 24.92 -0.5 31.1 37 -13.6 7.5
17:00 1015 29.97 844 24.92 -0.7 30.7 36 -14.1 6.7
17:05 1015 29.97 844 24.92 -1 30.2 36 -14.4 6.1
17:10 1015 29.97 844 24.92 -1.1 30.1 37 -14.2 6.5
17:15 1015 29.97 844 24.92 -1.3 29.7 35 -14.9 5.2
17:20 1015 29.97 844 24.92 -1.3 29.7 38 -14 6.9
17:25 1015 29.97 844 24.92 -1.8 28.8 39 -14 6.8
17:30 1015 29.97 844 24.92 -2.3 27.9 43 -13.4 8
17:35 1015 29.97 844 24.92 -2.4 27.7 43 -13.3 8
17:40 1015 29.97 844 24.92 -2.6 27.3 43 -13.5 7.6
17:45 1015 29.97 844 24.92 -2.9 26.9 43 -13.7 7.4
17:50 1015 29.97 844 24.92 -3.2 26.2 43 -14.2 6.4
17:55 1015 29.97 844 24.92 -3.3 26.1 44 -14 6.8
18:00 1015 29.97 844 24.92 -3.2 26.2 43 -14.2 6.5
18:05 1015 29.97 844 24.92 -3.3 26 44 -13.9 6.9
18:10 1015 29.97 844 24.92 -3.5 25.7 44 -14.2 6.5
18:15 1015 29.97 844 24.92 -3.6 25.5 44 -14.3 6.3
18:20 1015 29.97 844 24.92 -3.5 25.7 45 -13.7 7.4
18:25 1015 29.97 844 24.92 -3.6 25.5 44 -14.1 6.6
18:30 1015 29.97 844 24.92 -3.9 25 46 -13.8 7.1
18:35 1015 29.97 844 24.92 -4.2 24.4 47 -14 6.8
18:40 1015 29.97 844 24.92 -4.5 23.9 47 -14.1 6.6
18:45 1015 29.97 844 24.92 -4.7 23.6 48 -14.1 6.6
18:50 1015 29.97 844 24.92 -4.7 23.6 47 -14.5 5.9
18:55 1015 29.97 844 24.92 -4.6 23.7 47 -14.4 6
19:00 1015 29.97 844 24.92 -4.8 23.3 47 -14.6 5.8
19:05 1015 29.97 844 24.92 -4.8 23.4 48 -14.3 6.3
19:10 1015 29.97 844 24.92 -4.8 23.4 46 -14.8 5.4
19:15 1015 29.97 844 24.92 -4.6 23.8 47 -14.3 6.3
19:20 1015 29.97 844 24.92 -5 23.1 47 -14.6 5.8
19:25 1015 29.97 844 24.92 -5.1 22.8 47 -14.7 5.6
19:30 1015 29.97 844 24.92 -5.1 22.8 46 -15.1 4.9
19:35 1015 29.97 844 24.92 -4.7 23.5 43 -15.5 4.1
19:40 1015 29.97 844 24.92 -4.4 24.1 44 -14.9 5.1
19:45 1015 29.97 844 24.92 -4.7 23.6 46 -14.6 5.7
19:50 1015 29.97 844 24.92 -4.8 23.3 46 -14.8 5.4
19:55 1015 29.97 844 24.92 -5 22.9 47 -14.8 5.4
20:00 1015 29.97 844 24.92 -5.3 22.5 48 -14.7 5.5
20:05 1015 29.97 845 24.95 -5.4 22.3 48 -14.7 5.5
20:10 1015 29.97 845 24.95 -5.5 22.2 48 -14.7 5.5
20:15 1015 29.97 845 24.95 -5.3 22.4 48 -14.8 5.4
20:20 1015 29.97 845 24.95 -5.2 22.6 47 -14.8 5.4
20:25 1015 29.97 845 24.95 -5.1 22.8 47 -14.7 5.6
20:30 1015 29.97 845 24.95 -5.1 22.8 47 -14.7 5.6
20:35 1015 29.97 845 24.95 -5.3 22.6 48 -14.6 5.6
20:40 1015 29.97 845 24.95 -5.4 22.3 48 -14.7 5.5
20:45 1015 29.97 845 24.95 -5.6 22 49 -14.6 5.7
20:50 1015 29.97 845 24.95 -5.6 21.9 49 -14.8 5.4
20:55 1015 29.97 845 24.95 -5.6 21.9 49 -14.8 5.3
21:00 1015 29.97 845 24.95 -5.4 22.3 48 -14.7 5.5
21:05 1015 29.97 845 24.95 -5.5 22.1 48 -14.8 5.3
21:10 1015 29.97 845 24.95 -5.4 22.2 48 -14.7 5.5
21:15 1015 29.97 845 24.95 -5.5 22 48 -14.8 5.4
21:20 1015 29.97 845 24.95 -5.5 22 48 -14.9 5.2
21:25 1015 29.97 845 24.95 -5.6 21.9 49 -14.8 5.3
21:30 1015 29.97 845 24.95 -5.9 21.5 49 -14.9 5.2
21:35 1015 29.97 845 24.95 -6 21.2 50 -14.9 5.2
21:40 1015 29.97 845 24.95 -6.1 21.1 50 -14.9 5.1
21:45 1015 29.97 845 24.95 -6 21.1 49 -15.1 4.9
21:50 1015 29.97 845 24.95 -5.9 21.4 49 -15 5
21:55 1015 29.97 845 24.95 -5.8 21.5 49 -14.9 5.3
22:00 1015 29.97 845 24.95 -5.9 21.4 49 -14.9 5.2
22:05 1015 29.97 845 24.95 -5.8 21.5 48 -15.1 4.7
22:10 1015 29.97 845 24.95 -5.7 21.7 49 -14.9 5.1
22:15 1015 29.97 845 24.95 -5.9 21.3 50 -14.9 5.2
22:20 1015 29.97 845 24.95 -6.1 20.9 50 -14.9 5.2
22:25 1015 29.97 845 24.95 -6.3 20.7 50 -15.1 4.9
22:30 1015 29.97 845 24.95 -6.2 20.9 49 -15.2 4.7
22:35 1015 29.97 844 24.92 -6.1 21.1 49 -15.1 4.8
22:40 1015 29.97 845 24.95 -6.1 21 50 -15 5
22:45 1015 29.97 845 24.95 -6.3 20.7 50 -15.1 4.8
22:50 1015 29.97 844 24.92 -6.3 20.7 49 -15.3 4.5
22:55 1015 29.97 844 24.92 -6 21.2 49 -15.2 4.6
23:00 1015 29.97 844 24.92 -6 21.2 49 -15.1 4.8
23:05 1015 29.97 844 24.92 -6.3 20.7 50 -15 4.9
23:10 1015 29.97 844 24.92 -6.6 20.1 51 -15.2 4.7
23:15 1015 29.97 844 24.92 -6.6 20.1 51 -15.1 4.7
23:20 1015 29.97 844 24.92 -6.5 20.3 50 -15.2 4.6
23:25 1015 29.97 844 24.92 -6.4 20.4 50 -15.2 4.6
23:30 1015 29.97 844 24.92 -6.4 20.6 50 -15.1 4.8
23:35 1015 29.97 844 24.92 -6.3 20.6 50 -15.2 4.7
23:40 1015 29.97 844 24.92 -6.3 20.7 50 -15.1 4.8
23:45 1015 29.97 844 24.92 -6.3 20.7 50 -15.1 4.9
23:50 1015 29.97 844 24.92 -6.3 20.7 50 -15.1 4.9
23:55 1015 29.97 844 24.92 -6.3 20.6 51 -15 5
24:00 1015 29.97 844 24.92 -6.5 20.4 51 -15 4.9